Abbots Leigh, United Kingdom
Current Conditions -  °F | °C
As of 12:50 PM on Friday 19 Dec 2014 (Local Time) from EGGD Reporting Station
Few Clouds Few Clouds  
Wind Chill: 38°   Ceiling: Unl
Heat Index: 46°   Visibility: 6mi
Dew Point: 37°   Wind: 23mph
Humidity: 71%   Direction: 270°W
Pressure: 30.06"   Gusts: NA
Location:  51.45°N, 2.61°W
Report Text: EGGD 191250Z 27020KT 9999 FEW027 08/03 Q1018
Loading
Personal Weather Stations






























Interactive Weather Map New forecast layout! Learn more

10-Day Weather Forecast

Advertisements
Track Severe Weather on mobile